sensor_id;sensor_type;location;lat;lon;timestamp;temperature;humidity
18717;DHT22;9487;50.892;6.906;2022-09-17T00:00:40;10.50;99.90
18717;DHT22;9487;50.892;6.906;2022-09-17T00:03:08;10.60;99.90
18717;DHT22;9487;50.892;6.906;2022-09-17T00:05:35;10.70;99.90
18717;DHT22;9487;50.892;6.906;2022-09-17T00:08:02;10.60;99.90
18717;DHT22;9487;50.892;6.906;2022-09-17T00:10:30;10.60;99.90
18717;DHT22;9487;50.892;6.906;2022-09-17T00:12:57;10.70;99.90
18717;DHT22;9487;50.892;6.906;2022-09-17T00:15:26;10.70;99.90
18717;DHT22;9487;50.892;6.906;2022-09-17T00:17:53;10.80;99.90
18717;DHT22;9487;50.892;6.906;2022-09-17T00:20:22;10.80;99.90
18717;DHT22;9487;50.892;6.906;2022-09-17T00:22:48;10.70;99.90
18717;DHT22;9487;50.892;6.906;2022-09-17T00:25:15;10.80;99.90
18717;DHT22;9487;50.892;6.906;2022-09-17T00:27:42;10.90;99.90
18717;DHT22;9487;50.892;6.906;2022-09-17T00:30:10;10.90;99.90
18717;DHT22;9487;50.892;6.906;2022-09-17T00:32:39;11.00;99.90
18717;DHT22;9487;50.892;6.906;2022-09-17T00:35:06;11.00;99.90
18717;DHT22;9487;50.892;6.906;2022-09-17T00:37:33;11.00;99.90
18717;DHT22;9487;50.892;6.906;2022-09-17T00:40:00;10.90;99.90
18717;DHT22;9487;50.892;6.906;2022-09-17T00:42:27;11.00;99.90
18717;DHT22;9487;50.892;6.906;2022-09-17T00:44:55;10.90;99.90
18717;DHT22;9487;50.892;6.906;2022-09-17T00:47:28;10.90;99.90
18717;DHT22;9487;50.892;6.906;2022-09-17T00:50:00;10.90;99.90
18717;DHT22;9487;50.892;6.906;2022-09-17T00:52:32;11.00;99.90
18717;DHT22;9487;50.892;6.906;2022-09-17T00:55:05;11.00;99.90
18717;DHT22;9487;50.892;6.906;2022-09-17T00:57:33;11.00;99.90
18717;DHT22;9487;50.892;6.906;2022-09-17T01:00:00;11.00;99.90
18717;DHT22;9487;50.892;6.906;2022-09-17T01:02:27;11.00;99.90
18717;DHT22;9487;50.892;6.906;2022-09-17T01:04:54;11.00;99.90
18717;DHT22;9487;50.892;6.906;2022-09-17T01:07:43;10.90;99.90
18717;DHT22;9487;50.892;6.906;2022-09-17T01:10:21;10.80;99.90
18717;DHT22;9487;50.892;6.906;2022-09-17T01:13:05;10.80;99.90
18717;DHT22;9487;50.892;6.906;2022-09-17T01:15:40;10.90;99.90
18717;DHT22;9487;50.892;6.906;2022-09-17T01:18:20;10.90;99.90
18717;DHT22;9487;50.892;6.906;2022-09-17T01:30:29;10.80;99.90
18717;DHT22;9487;50.892;6.906;2022-09-17T01:33:01;10.90;99.90
18717;DHT22;9487;50.892;6.906;2022-09-17T01:35:33;11.00;99.90
18717;DHT22;9487;50.892;6.906;2022-09-17T01:38:08;10.90;99.90
18717;DHT22;9487;50.892;6.906;2022-09-17T01:40:44;10.90;99.90
18717;DHT22;9487;50.892;6.906;2022-09-17T01:43:20;10.90;99.90
18717;DHT22;9487;50.892;6.906;2022-09-17T01:45:51;10.90;99.90
18717;DHT22;9487;50.892;6.906;2022-09-17T01:48:24;10.90;99.90
18717;DHT22;9487;50.892;6.906;2022-09-17T01:50:55;11.00;99.90
18717;DHT22;9487;50.892;6.906;2022-09-17T01:53:30;11.00;99.90
18717;DHT22;9487;50.892;6.906;2022-09-17T01:56:01;10.90;99.90
18717;DHT22;9487;50.892;6.906;2022-09-17T01:58:32;10.90;99.90
18717;DHT22;9487;50.892;6.906;2022-09-17T02:01:03;10.80;99.90
18717;DHT22;9487;50.892;6.906;2022-09-17T02:03:36;10.90;99.90
18717;DHT22;9487;50.892;6.906;2022-09-17T02:06:08;10.80;99.90
18717;DHT22;9487;50.892;6.906;2022-09-17T02:08:40;10.80;99.90
18717;DHT22;9487;50.892;6.906;2022-09-17T02:11:09;10.80;99.90
18717;DHT22;9487;50.892;6.906;2022-09-17T02:13:42;10.80;99.90
18717;DHT22;9487;50.892;6.906;2022-09-17T02:16:14;10.70;99.90
18717;DHT22;9487;50.892;6.906;2022-09-17T02:18:48;10.70;99.90
18717;DHT22;9487;50.892;6.906;2022-09-17T02:21:21;10.70;99.90
18717;DHT22;9487;50.892;6.906;2022-09-17T02:23:56;10.70;99.90
18717;DHT22;9487;50.892;6.906;2022-09-17T02:26:28;10.70;99.90
18717;DHT22;9487;50.892;6.906;2022-09-17T02:28:59;10.60;99.90
18717;DHT22;9487;50.892;6.906;2022-09-17T02:31:30;10.60;99.90
18717;DHT22;9487;50.892;6.906;2022-09-17T02:34:00;10.60;99.90
18717;DHT22;9487;50.892;6.906;2022-09-17T02:36:28;10.70;99.90
18717;DHT22;9487;50.892;6.906;2022-09-17T02:38:58;10.70;99.90
18717;DHT22;9487;50.892;6.906;2022-09-17T02:41:35;10.80;99.90
18717;DHT22;9487;50.892;6.906;2022-09-17T02:44:12;10.80;99.90
18717;DHT22;9487;50.892;6.906;2022-09-17T02:46:57;10.80;99.90
18717;DHT22;9487;50.892;6.906;2022-09-17T02:49:37;11.00;99.90
18717;DHT22;9487;50.892;6.906;2022-09-17T02:52:14;11.00;99.90
18717;DHT22;9487;50.892;6.906;2022-09-17T02:54:49;11.00;99.90
18717;DHT22;9487;50.892;6.906;2022-09-17T02:57:19;11.00;99.90
18717;DHT22;9487;50.892;6.906;2022-09-17T02:59:51;10.90;99.90
18717;DHT22;9487;50.892;6.906;2022-09-17T03:02:24;10.80;99.90
18717;DHT22;9487;50.892;6.906;2022-09-17T03:04:53;10.90;99.90
18717;DHT22;9487;50.892;6.906;2022-09-17T03:07:21;10.80;99.90
18717;DHT22;9487;50.892;6.906;2022-09-17T03:09:49;10.80;99.90
18717;DHT22;9487;50.892;6.906;2022-09-17T03:12:16;10.80;99.90
18717;DHT22;9487;50.892;6.906;2022-09-17T03:14:42;10.80;99.90
18717;DHT22;9487;50.892;6.906;2022-09-17T03:17:10;10.80;99.90
18717;DHT22;9487;50.892;6.906;2022-09-17T03:19:38;10.90;99.90
18717;DHT22;9487;50.892;6.906;2022-09-17T03:22:05;10.90;99.90
18717;DHT22;9487;50.892;6.906;2022-09-17T03:24:32;11.00;99.90
18717;DHT22;9487;50.892;6.906;2022-09-17T03:26:59;10.90;99.90
18717;DHT22;9487;50.892;6.906;2022-09-17T03:29:26;10.90;99.90
18717;DHT22;9487;50.892;6.906;2022-09-17T03:31:52;10.90;99.90
18717;DHT22;9487;50.892;6.906;2022-09-17T03:34:19;10.90;99.90
18717;DHT22;9487;50.892;6.906;2022-09-17T03:36:47;10.90;99.90
18717;DHT22;9487;50.892;6.906;2022-09-17T03:39:14;11.00;99.90
18717;DHT22;9487;50.892;6.906;2022-09-17T03:41:41;11.00;99.90
18717;DHT22;9487;50.892;6.906;2022-09-17T03:44:08;11.00;99.90
18717;DHT22;9487;50.892;6.906;2022-09-17T03:46:35;11.00;99.90
18717;DHT22;9487;50.892;6.906;2022-09-17T03:49:03;10.90;99.90
18717;DHT22;9487;50.892;6.906;2022-09-17T03:51:29;10.90;99.90
18717;DHT22;9487;50.892;6.906;2022-09-17T03:53:58;10.90;99.90
18717;DHT22;9487;50.892;6.906;2022-09-17T03:56:24;10.90;99.90
18717;DHT22;9487;50.892;6.906;2022-09-17T03:58:56;10.90;99.90
18717;DHT22;9487;50.892;6.906;2022-09-17T04:01:23;10.90;99.90
18717;DHT22;9487;50.892;6.906;2022-09-17T04:03:50;10.90;99.90
18717;DHT22;9487;50.892;6.906;2022-09-17T04:06:16;10.90;99.90
18717;DHT22;9487;50.892;6.906;2022-09-17T04:08:43;10.90;99.90
18717;DHT22;9487;50.892;6.906;2022-09-17T04:11:11;11.10;99.90
18717;DHT22;9487;50.892;6.906;2022-09-17T04:13:38;11.10;99.90
18717;DHT22;9487;50.892;6.906;2022-09-17T04:16:05;11.00;99.90
18717;DHT22;9487;50.892;6.906;2022-09-17T04:18:32;10.90;99.90
18717;DHT22;9487;50.892;6.906;2022-09-17T04:20:59;11.00;99.90
18717;DHT22;9487;50.892;6.906;2022-09-17T04:23:26;11.00;99.90
18717;DHT22;9487;50.892;6.906;2022-09-17T04:25:53;11.00;99.90
18717;DHT22;9487;50.892;6.906;2022-09-17T04:28:21;10.90;99.90
18717;DHT22;9487;50.892;6.906;2022-09-17T04:30:48;10.90;99.90
18717;DHT22;9487;50.892;6.906;2022-09-17T04:33:15;10.80;99.90
18717;DHT22;9487;50.892;6.906;2022-09-17T04:35:42;10.70;99.90
18717;DHT22;9487;50.892;6.906;2022-09-17T04:38:09;10.80;99.90
18717;DHT22;9487;50.892;6.906;2022-09-17T04:40:39;10.70;99.90
18717;DHT22;9487;50.892;6.906;2022-09-17T04:43:07;10.70;99.90
18717;DHT22;9487;50.892;6.906;2022-09-17T04:45:36;10.70;99.90
18717;DHT22;9487;50.892;6.906;2022-09-17T04:48:03;10.60;99.90
18717;DHT22;9487;50.892;6.906;2022-09-17T04:50:30;10.60;99.90
18717;DHT22;9487;50.892;6.906;2022-09-17T04:52:57;10.70;99.90
18717;DHT22;9487;50.892;6.906;2022-09-17T04:55:24;10.80;99.90
18717;DHT22;9487;50.892;6.906;2022-09-17T04:57:52;10.70;99.90
18717;DHT22;9487;50.892;6.906;2022-09-17T05:00:20;10.80;99.90
18717;DHT22;9487;50.892;6.906;2022-09-17T05:02:50;10.70;99.90
18717;DHT22;9487;50.892;6.906;2022-09-17T05:05:17;10.60;99.90
18717;DHT22;9487;50.892;6.906;2022-09-17T05:07:44;10.70;99.90
18717;DHT22;9487;50.892;6.906;2022-09-17T05:10:13;10.70;99.90
18717;DHT22;9487;50.892;6.906;2022-09-17T05:12:45;10.70;99.90
18717;DHT22;9487;50.892;6.906;2022-09-17T05:15:12;10.60;99.90
18717;DHT22;9487;50.892;6.906;2022-09-17T05:17:39;10.80;99.90
18717;DHT22;9487;50.892;6.906;2022-09-17T05:20:08;10.90;99.90
18717;DHT22;9487;50.892;6.906;2022-09-17T05:22:40;11.00;99.90
18717;DHT22;9487;50.892;6.906;2022-09-17T05:25:07;11.00;99.90
18717;DHT22;9487;50.892;6.906;2022-09-17T05:27:34;11.00;99.90
18717;DHT22;9487;50.892;6.906;2022-09-17T05:30:01;11.00;99.90
18717;DHT22;9487;50.892;6.906;2022-09-17T05:32:28;11.00;99.90
18717;DHT22;9487;50.892;6.906;2022-09-17T05:34:55;11.00;99.90
18717;DHT22;9487;50.892;6.906;2022-09-17T05:37:23;10.90;99.90
18717;DHT22;9487;50.892;6.906;2022-09-17T05:39:50;10.80;99.90
18717;DHT22;9487;50.892;6.906;2022-09-17T05:42:17;10.80;99.90
18717;DHT22;9487;50.892;6.906;2022-09-17T05:44:44;10.80;99.90
18717;DHT22;9487;50.892;6.906;2022-09-17T05:47:11;10.80;99.90
18717;DHT22;9487;50.892;6.906;2022-09-17T05:49:38;10.80;99.90
18717;DHT22;9487;50.892;6.906;2022-09-17T05:52:04;10.80;99.90
18717;DHT22;9487;50.892;6.906;2022-09-17T05:54:32;10.80;99.90
18717;DHT22;9487;50.892;6.906;2022-09-17T05:56:59;10.90;99.90
18717;DHT22;9487;50.892;6.906;2022-09-17T05:59:26;10.90;99.90
18717;DHT22;9487;50.892;6.906;2022-09-17T06:01:53;11.00;99.90
18717;DHT22;9487;50.892;6.906;2022-09-17T06:04:20;11.10;99.90
18717;DHT22;9487;50.892;6.906;2022-09-17T06:06:47;11.20;99.90
18717;DHT22;9487;50.892;6.906;2022-09-17T06:09:14;11.20;99.90
18717;DHT22;9487;50.892;6.906;2022-09-17T06:11:42;11.30;99.90
18717;DHT22;9487;50.892;6.906;2022-09-17T06:14:09;11.50;99.90
18717;DHT22;9487;50.892;6.906;2022-09-17T06:16:36;11.50;99.90
18717;DHT22;9487;50.892;6.906;2022-09-17T06:19:03;11.60;99.90
18717;DHT22;9487;50.892;6.906;2022-09-17T06:21:29;11.80;99.90
18717;DHT22;9487;50.892;6.906;2022-09-17T06:23:56;11.70;99.90
18717;DHT22;9487;50.892;6.906;2022-09-17T06:26:23;11.90;99.90
18717;DHT22;9487;50.892;6.906;2022-09-17T06:28:51;12.10;99.90
18717;DHT22;9487;50.892;6.906;2022-09-17T06:31:18;12.10;99.90
18717;DHT22;9487;50.892;6.906;2022-09-17T06:33:45;12.20;99.90
18717;DHT22;9487;50.892;6.906;2022-09-17T06:36:12;12.30;99.90
18717;DHT22;9487;50.892;6.906;2022-09-17T06:38:39;12.30;99.90
18717;DHT22;9487;50.892;6.906;2022-09-17T06:41:06;12.20;99.90
18717;DHT22;9487;50.892;6.906;2022-09-17T06:43:33;12.40;99.90
18717;DHT22;9487;50.892;6.906;2022-09-17T06:46:03;12.30;99.90
18717;DHT22;9487;50.892;6.906;2022-09-17T06:48:33;12.20;99.90
18717;DHT22;9487;50.892;6.906;2022-09-17T06:51:02;12.20;99.90
18717;DHT22;9487;50.892;6.906;2022-09-17T06:53:29;12.20;99.90
18717;DHT22;9487;50.892;6.906;2022-09-17T06:55:57;12.30;99.90
18717;DHT22;9487;50.892;6.906;2022-09-17T06:58:24;12.10;99.90
18717;DHT22;9487;50.892;6.906;2022-09-17T07:00:51;12.00;99.90
18717;DHT22;9487;50.892;6.906;2022-09-17T07:03:19;12.00;99.90
18717;DHT22;9487;50.892;6.906;2022-09-17T07:05:46;11.90;99.90
18717;DHT22;9487;50.892;6.906;2022-09-17T07:08:13;12.00;99.90
18717;DHT22;9487;50.892;6.906;2022-09-17T07:10:40;12.00;99.90
18717;DHT22;9487;50.892;6.906;2022-09-17T07:13:07;12.10;99.90
18717;DHT22;9487;50.892;6.906;2022-09-17T07:15:34;12.00;99.90
18717;DHT22;9487;50.892;6.906;2022-09-17T07:18:06;11.90;99.90
18717;DHT22;9487;50.892;6.906;2022-09-17T07:20:37;12.00;99.90
18717;DHT22;9487;50.892;6.906;2022-09-17T07:23:04;11.90;99.90
18717;DHT22;9487;50.892;6.906;2022-09-17T07:25:31;12.00;99.90
18717;DHT22;9487;50.892;6.906;2022-09-17T07:27:58;11.90;99.90
18717;DHT22;9487;50.892;6.906;2022-09-17T07:30:25;11.90;99.90
18717;DHT22;9487;50.892;6.906;2022-09-17T07:32:52;11.80;99.90
18717;DHT22;9487;50.892;6.906;2022-09-17T07:35:19;11.90;99.90
18717;DHT22;9487;50.892;6.906;2022-09-17T07:37:47;11.80;99.90
18717;DHT22;9487;50.892;6.906;2022-09-17T07:40:14;12.00;99.90
18717;DHT22;9487;50.892;6.906;2022-09-17T07:42:40;12.10;99.90
18717;DHT22;9487;50.892;6.906;2022-09-17T07:45:08;12.20;99.90
18717;DHT22;9487;50.892;6.906;2022-09-17T07:47:38;12.10;99.90
18717;DHT22;9487;50.892;6.906;2022-09-17T07:50:07;12.20;99.90
18717;DHT22;9487;50.892;6.906;2022-09-17T07:52:34;12.40;99.90
18717;DHT22;9487;50.892;6.906;2022-09-17T07:55:02;12.30;99.90
18717;DHT22;9487;50.892;6.906;2022-09-17T07:57:29;12.30;99.90
18717;DHT22;9487;50.892;6.906;2022-09-17T07:59:55;12.40;99.90
18717;DHT22;9487;50.892;6.906;2022-09-17T08:02:22;12.40;99.90
18717;DHT22;9487;50.892;6.906;2022-09-17T08:04:49;12.60;99.90
18717;DHT22;9487;50.892;6.906;2022-09-17T08:07:16;12.90;99.90
18717;DHT22;9487;50.892;6.906;2022-09-17T08:09:43;13.00;99.90
18717;DHT22;9487;50.892;6.906;2022-09-17T08:12:11;13.00;99.90
18717;DHT22;9487;50.892;6.906;2022-09-17T08:14:38;13.50;99.90
18717;DHT22;9487;50.892;6.906;2022-09-17T08:17:06;13.50;99.90
18717;DHT22;9487;50.892;6.906;2022-09-17T08:19:33;13.50;99.90
18717;DHT22;9487;50.892;6.906;2022-09-17T08:22:00;13.50;99.90
18717;DHT22;9487;50.892;6.906;2022-09-17T08:24:27;13.60;99.90
18717;DHT22;9487;50.892;6.906;2022-09-17T08:26:54;13.60;99.90
18717;DHT22;9487;50.892;6.906;2022-09-17T08:29:22;13.70;99.90
18717;DHT22;9487;50.892;6.906;2022-09-17T08:31:49;13.60;99.90
18717;DHT22;9487;50.892;6.906;2022-09-17T08:34:16;13.50;99.90
18717;DHT22;9487;50.892;6.906;2022-09-17T08:36:43;13.40;99.90
18717;DHT22;9487;50.892;6.906;2022-09-17T08:39:09;13.50;99.90
18717;DHT22;9487;50.892;6.906;2022-09-17T08:41:47;13.60;99.90
18717;DHT22;9487;50.892;6.906;2022-09-17T08:44:23;13.60;99.90
18717;DHT22;9487;50.892;6.906;2022-09-17T08:46:52;13.60;99.90
18717;DHT22;9487;50.892;6.906;2022-09-17T08:49:27;13.70;99.90
18717;DHT22;9487;50.892;6.906;2022-09-17T08:52:10;13.80;99.90
18717;DHT22;9487;50.892;6.906;2022-09-17T08:54:47;13.90;99.90
18717;DHT22;9487;50.892;6.906;2022-09-17T08:57:20;13.70;99.90
18717;DHT22;9487;50.892;6.906;2022-09-17T08:59:56;13.90;99.90
18717;DHT22;9487;50.892;6.906;2022-09-17T09:02:35;14.10;99.90
18717;DHT22;9487;50.892;6.906;2022-09-17T09:05:10;14.20;99.90
18717;DHT22;9487;50.892;6.906;2022-09-17T09:07:43;14.30;99.90
18717;DHT22;9487;50.892;6.906;2022-09-17T09:10:17;14.20;99.90
18717;DHT22;9487;50.892;6.906;2022-09-17T09:12:48;14.30;99.90
18717;DHT22;9487;50.892;6.906;2022-09-17T09:15:28;14.40;99.90
18717;DHT22;9487;50.892;6.906;2022-09-17T09:18:00;14.60;99.90
18717;DHT22;9487;50.892;6.906;2022-09-17T09:20:39;14.90;99.90
18717;DHT22;9487;50.892;6.906;2022-09-17T09:23:16;14.60;99.90
18717;DHT22;9487;50.892;6.906;2022-09-17T09:25:52;14.40;99.90
18717;DHT22;9487;50.892;6.906;2022-09-17T09:28:31;14.50;99.90
18717;DHT22;9487;50.892;6.906;2022-09-17T09:31:06;14.70;99.90
18717;DHT22;9487;50.892;6.906;2022-09-17T09:33:37;14.90;99.90
18717;DHT22;9487;50.892;6.906;2022-09-17T09:36:06;14.50;99.90
18717;DHT22;9487;50.892;6.906;2022-09-17T09:38:37;14.70;99.90
18717;DHT22;9487;50.892;6.906;2022-09-17T09:41:10;14.50;99.90
18717;DHT22;9487;50.892;6.906;2022-09-17T09:43:41;14.50;99.90
18717;DHT22;9487;50.892;6.906;2022-09-17T09:46:34;14.70;99.90
18717;DHT22;9487;50.892;6.906;2022-09-17T09:49:10;14.60;99.90
18717;DHT22;9487;50.892;6.906;2022-09-17T09:51:58;14.40;99.90
18717;DHT22;9487;50.892;6.906;2022-09-17T09:54:42;14.30;99.90
18717;DHT22;9487;50.892;6.906;2022-09-17T09:57:13;14.40;99.90
18717;DHT22;9487;50.892;6.906;2022-09-17T09:59:40;14.50;99.90
18717;DHT22;9487;50.892;6.906;2022-09-17T10:02:09;14.50;99.90
18717;DHT22;9487;50.892;6.906;2022-09-17T10:04:37;14.60;99.90
18717;DHT22;9487;50.892;6.906;2022-09-17T10:07:05;14.80;99.90
18717;DHT22;9487;50.892;6.906;2022-09-17T10:09:33;15.30;99.90
18717;DHT22;9487;50.892;6.906;2022-09-17T10:12:14;15.30;99.90
18717;DHT22;9487;50.892;6.906;2022-09-17T10:14:42;15.20;99.90
18717;DHT22;9487;50.892;6.906;2022-09-17T10:17:18;15.20;99.90
18717;DHT22;9487;50.892;6.906;2022-09-17T10:19:47;15.40;99.90
18717;DHT22;9487;50.892;6.906;2022-09-17T10:22:36;15.30;99.90
18717;DHT22;9487;50.892;6.906;2022-09-17T10:25:05;15.10;99.90
18717;DHT22;9487;50.892;6.906;2022-09-17T10:27:33;15.20;99.90
18717;DHT22;9487;50.892;6.906;2022-09-17T10:30:13;15.20;99.90
18717;DHT22;9487;50.892;6.906;2022-09-17T10:32:42;15.00;99.90
18717;DHT22;9487;50.892;6.906;2022-09-17T10:35:24;14.90;99.90
18717;DHT22;9487;50.892;6.906;2022-09-17T10:37:53;15.10;99.90
18717;DHT22;9487;50.892;6.906;2022-09-17T10:40:30;14.90;99.90
18717;DHT22;9487;50.892;6.906;2022-09-17T10:43:21;15.00;99.90
18717;DHT22;9487;50.892;6.906;2022-09-17T10:45:56;15.20;99.90
18717;DHT22;9487;50.892;6.906;2022-09-17T10:48:27;15.20;99.90
18717;DHT22;9487;50.892;6.906;2022-09-17T10:50:56;15.20;99.90
18717;DHT22;9487;50.892;6.906;2022-09-17T10:53:24;15.00;99.90
18717;DHT22;9487;50.892;6.906;2022-09-17T10:55:56;15.10;99.90
18717;DHT22;9487;50.892;6.906;2022-09-17T10:58:33;15.50;99.90
18717;DHT22;9487;50.892;6.906;2022-09-17T11:01:13;15.40;99.90
18717;DHT22;9487;50.892;6.906;2022-09-17T11:07:03;15.00;99.90
18717;DHT22;9487;50.892;6.906;2022-09-17T11:09:42;15.30;99.90
18717;DHT22;9487;50.892;6.906;2022-09-17T11:12:23;15.40;99.90
18717;DHT22;9487;50.892;6.906;2022-09-17T11:14:56;15.80;99.90
18717;DHT22;9487;50.892;6.906;2022-09-17T11:17:42;15.80;99.90
18717;DHT22;9487;50.892;6.906;2022-09-17T11:20:23;15.80;99.90
18717;DHT22;9487;50.892;6.906;2022-09-17T11:23:05;15.60;99.90
18717;DHT22;9487;50.892;6.906;2022-09-17T11:25:45;15.60;99.90
18717;DHT22;9487;50.892;6.906;2022-09-17T11:28:34;15.70;99.90
18717;DHT22;9487;50.892;6.906;2022-09-17T11:31:14;15.90;99.90
18717;DHT22;9487;50.892;6.906;2022-09-17T11:34:03;16.00;99.90
18717;DHT22;9487;50.892;6.906;2022-09-17T11:36:45;16.00;99.90
18717;DHT22;9487;50.892;6.906;2022-09-17T11:39:19;16.00;99.90
18717;DHT22;9487;50.892;6.906;2022-09-17T11:41:50;15.80;99.90
18717;DHT22;9487;50.892;6.906;2022-09-17T11:44:23;15.50;99.90
18717;DHT22;9487;50.892;6.906;2022-09-17T11:46:54;15.20;99.90
18717;DHT22;9487;50.892;6.906;2022-09-17T11:49:26;14.20;99.90
18717;DHT22;9487;50.892;6.906;2022-09-17T11:52:01;12.70;99.90
18717;DHT22;9487;50.892;6.906;2022-09-17T11:54:34;12.30;99.90
18717;DHT22;9487;50.892;6.906;2022-09-17T11:57:08;12.20;99.90
18717;DHT22;9487;50.892;6.906;2022-09-17T11:59:40;12.10;99.90
18717;DHT22;9487;50.892;6.906;2022-09-17T12:02:18;12.00;99.90
18717;DHT22;9487;50.892;6.906;2022-09-17T12:04:54;12.20;99.90
18717;DHT22;9487;50.892;6.906;2022-09-17T12:07:34;12.50;99.90
18717;DHT22;9487;50.892;6.906;2022-09-17T12:10:24;12.70;99.90
18717;DHT22;9487;50.892;6.906;2022-09-17T12:12:58;13.10;99.90
18717;DHT22;9487;50.892;6.906;2022-09-17T12:15:27;13.50;99.90
18717;DHT22;9487;50.892;6.906;2022-09-17T12:18:03;13.70;99.90
18717;DHT22;9487;50.892;6.906;2022-09-17T12:20:35;13.90;99.90
18717;DHT22;9487;50.892;6.906;2022-09-17T12:23:08;14.00;99.90
18717;DHT22;9487;50.892;6.906;2022-09-17T12:25:43;14.10;99.90
18717;DHT22;9487;50.892;6.906;2022-09-17T12:28:16;14.20;99.90
18717;DHT22;9487;50.892;6.906;2022-09-17T12:30:53;14.10;99.90
18717;DHT22;9487;50.892;6.906;2022-09-17T12:33:25;14.00;99.90
18717;DHT22;9487;50.892;6.906;2022-09-17T12:36:15;14.10;99.90
18717;DHT22;9487;50.892;6.906;2022-09-17T12:39:24;14.00;99.90
18717;DHT22;9487;50.892;6.906;2022-09-17T12:42:01;14.10;99.90
18717;DHT22;9487;50.892;6.906;2022-09-17T12:44:44;14.00;99.90
18717;DHT22;9487;50.892;6.906;2022-09-17T12:50:34;13.60;99.90
18717;DHT22;9487;50.892;6.906;2022-09-17T12:53:13;13.60;99.90
18717;DHT22;9487;50.892;6.906;2022-09-17T12:55:53;13.80;99.90
18717;DHT22;9487;50.892;6.906;2022-09-17T12:58:34;14.00;99.90
18717;DHT22;9487;50.892;6.906;2022-09-17T13:01:05;14.30;99.90
18717;DHT22;9487;50.892;6.906;2022-09-17T13:03:35;14.70;99.90
18717;DHT22;9487;50.892;6.906;2022-09-17T13:09:58;15.10;99.90
18717;DHT22;9487;50.892;6.906;2022-09-17T13:12:31;15.20;99.90
18717;DHT22;9487;50.892;6.906;2022-09-17T13:15:18;15.40;99.90
18717;DHT22;9487;50.892;6.906;2022-09-17T13:17:50;15.50;99.90
18717;DHT22;9487;50.892;6.906;2022-09-17T13:20:24;15.30;99.90
18717;DHT22;9487;50.892;6.906;2022-09-17T13:22:55;15.30;99.90
18717;DHT22;9487;50.892;6.906;2022-09-17T13:25:22;15.20;99.90
18717;DHT22;9487;50.892;6.906;2022-09-17T13:28:04;15.40;99.90
18717;DHT22;9487;50.892;6.906;2022-09-17T13:30:56;15.70;99.90
18717;DHT22;9487;50.892;6.906;2022-09-17T13:36:45;15.10;99.90
18717;DHT22;9487;50.892;6.906;2022-09-17T13:39:38;13.30;99.90
18717;DHT22;9487;50.892;6.906;2022-09-17T13:42:08;12.70;99.90
18717;DHT22;9487;50.892;6.906;2022-09-17T13:44:42;12.20;99.90
18717;DHT22;9487;50.892;6.906;2022-09-17T13:47:14;11.80;99.90
18717;DHT22;9487;50.892;6.906;2022-09-17T13:49:44;11.40;99.90
18717;DHT22;9487;50.892;6.906;2022-09-17T13:52:12;11.30;99.90
18717;DHT22;9487;50.892;6.906;2022-09-17T13:54:40;11.20;99.90
18717;DHT22;9487;50.892;6.906;2022-09-17T13:57:12;11.30;99.90
18717;DHT22;9487;50.892;6.906;2022-09-17T13:59:53;11.20;99.90
18717;DHT22;9487;50.892;6.906;2022-09-17T14:02:32;11.20;99.90
18717;DHT22;9487;50.892;6.906;2022-09-17T14:05:28;11.40;99.90
18717;DHT22;9487;50.892;6.906;2022-09-17T14:08:23;11.30;99.90
18717;DHT22;9487;50.892;6.906;2022-09-17T14:10:54;11.60;99.90
18717;DHT22;9487;50.892;6.906;2022-09-17T14:13:27;11.70;99.90
18717;DHT22;9487;50.892;6.906;2022-09-17T14:16:00;11.90;99.90
18717;DHT22;9487;50.892;6.906;2022-09-17T14:18:44;12.10;99.90
18717;DHT22;9487;50.892;6.906;2022-09-17T14:21:25;12.50;99.90
18717;DHT22;9487;50.892;6.906;2022-09-17T14:23:55;12.80;99.90
18717;DHT22;9487;50.892;6.906;2022-09-17T14:26:33;13.00;99.90
18717;DHT22;9487;50.892;6.906;2022-09-17T14:29:05;13.20;99.90
18717;DHT22;9487;50.892;6.906;2022-09-17T14:31:35;13.40;99.90
18717;DHT22;9487;50.892;6.906;2022-09-17T14:34:04;13.40;99.90
18717;DHT22;9487;50.892;6.906;2022-09-17T14:36:34;13.60;99.90
18717;DHT22;9487;50.892;6.906;2022-09-17T14:39:04;13.60;99.90
18717;DHT22;9487;50.892;6.906;2022-09-17T14:41:39;13.70;99.90
18717;DHT22;9487;50.892;6.906;2022-09-17T14:44:11;13.80;99.90
18717;DHT22;9487;50.892;6.906;2022-09-17T14:46:44;13.30;99.90
18717;DHT22;9487;50.892;6.906;2022-09-17T14:49:13;12.30;99.90
18717;DHT22;9487;50.892;6.906;2022-09-17T14:51:42;12.20;99.90
18717;DHT22;9487;50.892;6.906;2022-09-17T14:54:15;12.20;99.90
18717;DHT22;9487;50.892;6.906;2022-09-17T14:56:57;12.10;99.90
18717;DHT22;9487;50.892;6.906;2022-09-17T14:59:34;12.30;99.90
18717;DHT22;9487;50.892;6.906;2022-09-17T15:02:22;12.20;99.90
18717;DHT22;9487;50.892;6.906;2022-09-17T15:04:52;12.20;99.90
18717;DHT22;9487;50.892;6.906;2022-09-17T15:07:20;12.20;99.90
18717;DHT22;9487;50.892;6.906;2022-09-17T15:09:47;12.20;99.90
18717;DHT22;9487;50.892;6.906;2022-09-17T15:12:16;12.20;99.90
18717;DHT22;9487;50.892;6.906;2022-09-17T15:14:45;12.20;99.90
18717;DHT22;9487;50.892;6.906;2022-09-17T15:17:14;12.30;99.90
18717;DHT22;9487;50.892;6.906;2022-09-17T15:19:46;12.30;99.90
18717;DHT22;9487;50.892;6.906;2022-09-17T15:22:16;12.30;99.90
18717;DHT22;9487;50.892;6.906;2022-09-17T15:24:49;12.40;99.90
18717;DHT22;9487;50.892;6.906;2022-09-17T15:27:22;12.40;99.90
18717;DHT22;9487;50.892;6.906;2022-09-17T15:29:52;12.40;99.90
18717;DHT22;9487;50.892;6.906;2022-09-17T15:32:21;12.20;99.90
18717;DHT22;9487;50.892;6.906;2022-09-17T15:35:17;12.20;99.90
18717;DHT22;9487;50.892;6.906;2022-09-17T15:37:46;12.20;99.90
18717;DHT22;9487;50.892;6.906;2022-09-17T15:40:14;12.20;99.90
18717;DHT22;9487;50.892;6.906;2022-09-17T15:42:48;12.40;99.90
18717;DHT22;9487;50.892;6.906;2022-09-17T15:45:17;12.40;99.90
18717;DHT22;9487;50.892;6.906;2022-09-17T15:47:51;12.50;99.90
18717;DHT22;9487;50.892;6.906;2022-09-17T15:50:21;12.40;99.90
18717;DHT22;9487;50.892;6.906;2022-09-17T15:52:49;12.40;99.90
18717;DHT22;9487;50.892;6.906;2022-09-17T15:55:31;12.40;99.90
18717;DHT22;9487;50.892;6.906;2022-09-17T15:57:59;12.50;99.90
18717;DHT22;9487;50.892;6.906;2022-09-17T16:00:26;12.70;99.90
18717;DHT22;9487;50.892;6.906;2022-09-17T16:02:53;12.90;99.90
18717;DHT22;9487;50.892;6.906;2022-09-17T16:08:20;13.60;99.90
18717;DHT22;9487;50.892;6.906;2022-09-17T16:10:47;13.90;99.90
18717;DHT22;9487;50.892;6.906;2022-09-17T16:13:13;13.80;99.90
18717;DHT22;9487;50.892;6.906;2022-09-17T16:15:40;13.90;99.90
18717;DHT22;9487;50.892;6.906;2022-09-17T16:18:12;14.10;99.90
18717;DHT22;9487;50.892;6.906;2022-09-17T16:20:39;14.10;99.90
18717;DHT22;9487;50.892;6.906;2022-09-17T16:23:06;14.20;99.90
18717;DHT22;9487;50.892;6.906;2022-09-17T16:25:35;14.40;99.90
18717;DHT22;9487;50.892;6.906;2022-09-17T16:28:07;14.60;99.90
18717;DHT22;9487;50.892;6.906;2022-09-17T16:30:34;14.70;99.90
18717;DHT22;9487;50.892;6.906;2022-09-17T16:33:02;14.80;99.90
18717;DHT22;9487;50.892;6.906;2022-09-17T16:35:31;14.80;99.90
18717;DHT22;9487;50.892;6.906;2022-09-17T16:37:58;14.80;99.90